createdAt,value
2018-10-18T00:00:06.016Z,17.40
2018-10-18T00:02:34.844Z,17.40
2018-10-18T00:05:03.559Z,17.40
2018-10-18T00:07:32.219Z,17.40
2018-10-18T00:10:00.940Z,17.50
2018-10-18T00:12:29.597Z,17.50
2018-10-18T00:14:58.251Z,17.50
2018-10-18T00:17:32.406Z,17.40
2018-10-18T00:20:01.094Z,17.40
2018-10-18T00:22:29.706Z,17.40
2018-10-18T00:24:58.344Z,17.40
2018-10-18T00:27:26.978Z,17.40
2018-10-18T00:29:55.629Z,17.40
2018-10-18T00:32:24.279Z,17.30
2018-10-18T00:34:52.904Z,17.40
2018-10-18T00:37:21.529Z,17.40
2018-10-18T00:39:50.152Z,17.40
2018-10-18T00:42:18.864Z,17.30
2018-10-18T00:44:47.495Z,17.30
2018-10-18T00:47:16.120Z,17.30
2018-10-18T00:49:44.736Z,17.30
2018-10-18T00:52:13.395Z,17.30
2018-10-18T00:54:42.060Z,17.30
2018-10-18T00:57:10.711Z,17.30
2018-10-18T00:59:39.337Z,17.30
2018-10-18T01:02:08.000Z,17.20
2018-10-18T01:04:36.684Z,17.30
2018-10-18T01:07:05.703Z,17.20
2018-10-18T01:09:34.375Z,17.20
2018-10-18T01:12:03.084Z,17.30
2018-10-18T01:14:31.721Z,17.30
2018-10-18T01:17:03.188Z,17.20
2018-10-18T01:19:34.003Z,17.20
2018-10-18T01:22:03.765Z,17.20
2018-10-18T01:24:32.453Z,17.20
2018-10-18T01:27:01.128Z,17.20
2018-10-18T01:29:29.817Z,17.20
2018-10-18T01:31:58.930Z,17.20
2018-10-18T01:34:27.545Z,17.20
2018-10-18T01:36:56.199Z,17.10
2018-10-18T01:39:24.880Z,17.20
2018-10-18T01:41:53.546Z,17.20
2018-10-18T01:44:22.168Z,17.20
2018-10-18T01:46:50.809Z,17.20
2018-10-18T01:49:19.460Z,17.20
2018-10-18T01:51:48.132Z,17.20
2018-10-18T01:54:16.845Z,17.20
2018-10-18T01:56:45.528Z,17.20
2018-10-18T01:59:14.172Z,17.20
2018-10-18T02:01:42.859Z,17.20
2018-10-18T02:04:11.502Z,17.20
2018-10-18T02:06:40.149Z,17.20
2018-10-18T02:09:10.686Z,17.20
2018-10-18T02:11:39.673Z,17.20
2018-10-18T02:14:08.405Z,17.20
2018-10-18T02:16:37.163Z,17.10
2018-10-18T02:19:06.206Z,17.10
2018-10-18T02:21:34.864Z,17.20
2018-10-18T02:24:03.578Z,17.10
2018-10-18T02:26:32.201Z,17.20
2018-10-18T02:29:00.841Z,17.20
2018-10-18T02:31:29.468Z,17.20
2018-10-18T02:33:58.124Z,17.20
2018-10-18T02:36:26.801Z,17.10
2018-10-18T02:38:55.419Z,17.10
2018-10-18T02:41:24.091Z,17.10
2018-10-18T02:43:52.755Z,17.10
2018-10-18T02:46:21.395Z,17.10
2018-10-18T02:48:50.028Z,17.10
2018-10-18T02:51:18.842Z,17.10
2018-10-18T02:53:47.471Z,17.10
2018-10-18T02:56:16.157Z,17.10
2018-10-18T02:58:44.785Z,17.10
2018-10-18T03:01:13.437Z,17.10
2018-10-18T03:03:42.113Z,17.10
2018-10-18T03:06:10.845Z,17.10
2018-10-18T03:08:39.468Z,17.10
2018-10-18T03:11:08.140Z,17.00
2018-10-18T03:13:36.768Z,17.00
2018-10-18T03:16:05.992Z,17.00
2018-10-18T03:18:34.488Z,17.00
2018-10-18T03:21:03.124Z,16.90
2018-10-18T03:23:31.797Z,16.90
2018-10-18T03:26:00.520Z,16.90
2018-10-18T03:28:29.161Z,16.90
2018-10-18T03:30:57.807Z,16.90
2018-10-18T03:33:26.454Z,16.90
2018-10-18T03:35:55.157Z,16.90
2018-10-18T03:38:23.811Z,16.90
2018-10-18T03:40:52.432Z,16.90
2018-10-18T03:43:21.062Z,16.90
2018-10-18T03:45:49.772Z,16.90
2018-10-18T03:48:18.532Z,16.90
2018-10-18T03:50:47.113Z,16.90
2018-10-18T03:53:15.769Z,16.90
2018-10-18T03:55:44.423Z,16.90
2018-10-18T03:58:13.051Z,16.90
2018-10-18T04:00:41.700Z,16.90
2018-10-18T04:03:10.329Z,16.90
2018-10-18T04:05:38.931Z,17.00
2018-10-18T04:08:07.686Z,17.00
2018-10-18T04:10:36.334Z,17.00
2018-10-18T04:13:05.109Z,17.00
2018-10-18T04:15:33.781Z,17.00
2018-10-18T04:18:02.534Z,17.00
2018-10-18T04:20:31.088Z,17.00
2018-10-18T04:22:59.756Z,17.00
2018-10-18T04:25:28.489Z,16.90
2018-10-18T04:27:57.081Z,16.80
2018-10-18T04:30:25.739Z,16.70
2018-10-18T04:32:54.429Z,16.70
2018-10-18T04:35:23.067Z,16.60
2018-10-18T04:37:51.942Z,16.60
2018-10-18T04:40:20.571Z,16.60
2018-10-18T04:42:49.267Z,16.60
2018-10-18T04:45:17.901Z,16.60
2018-10-18T04:47:46.602Z,16.60
2018-10-18T04:50:15.213Z,16.60
2018-10-18T04:52:43.832Z,16.60
2018-10-18T04:55:12.561Z,16.60
2018-10-18T04:57:41.195Z,16.70
2018-10-18T05:00:10.148Z,16.70
2018-10-18T05:02:39.234Z,16.70
2018-10-18T05:05:18.771Z,16.70
2018-10-18T05:07:47.420Z,16.70
2018-10-18T05:10:16.047Z,16.70
2018-10-18T05:12:44.727Z,16.70
2018-10-18T05:15:13.381Z,16.70
2018-10-18T05:17:42.260Z,16.80
2018-10-18T05:20:10.878Z,16.80
2018-10-18T05:22:39.483Z,16.80
2018-10-18T05:25:08.252Z,16.90
2018-10-18T05:27:36.855Z,16.90
2018-10-18T05:30:06.208Z,16.90
2018-10-18T05:32:34.867Z,16.90
2018-10-18T05:35:03.524Z,16.90
2018-10-18T05:37:32.186Z,16.90
2018-10-18T05:40:00.830Z,16.90
2018-10-18T05:42:29.425Z,16.90
2018-10-18T05:44:58.052Z,17.00
2018-10-18T05:47:26.667Z,17.00
2018-10-18T05:49:55.276Z,17.00
2018-10-18T05:52:23.886Z,17.00
2018-10-18T05:54:52.631Z,17.00
2018-10-18T05:57:21.237Z,17.00
2018-10-18T05:59:49.850Z,17.00
2018-10-18T06:02:18.476Z,17.00
2018-10-18T06:04:47.123Z,17.10
2018-10-18T06:07:15.855Z,17.10
2018-10-18T06:09:44.481Z,17.10
2018-10-18T06:12:13.156Z,17.10
2018-10-18T06:14:41.775Z,17.10
2018-10-18T06:17:10.407Z,17.10
2018-10-18T06:19:39.037Z,17.10
2018-10-18T06:22:07.683Z,17.10
2018-10-18T06:24:36.378Z,17.10
2018-10-18T06:27:05.196Z,17.10
2018-10-18T06:29:33.802Z,17.10
2018-10-18T06:32:02.425Z,17.20
2018-10-18T06:34:31.080Z,17.10
2018-10-18T06:36:59.735Z,17.10
2018-10-18T06:39:31.350Z,17.10
2018-10-18T06:42:00.037Z,17.10
2018-10-18T06:44:32.940Z,17.00
2018-10-18T06:47:01.840Z,17.00
2018-10-18T06:49:30.484Z,17.10
2018-10-18T06:52:00.390Z,17.10
2018-10-18T06:54:29.151Z,17.00
2018-10-18T06:56:57.767Z,17.00
2018-10-18T06:59:26.375Z,17.00
2018-10-18T07:01:54.999Z,17.00
2018-10-18T07:04:23.596Z,17.10
2018-10-18T07:06:52.199Z,17.10
2018-10-18T07:09:20.834Z,17.10
2018-10-18T07:11:49.569Z,17.20
2018-10-18T07:14:18.182Z,17.20
2018-10-18T07:16:46.862Z,17.20
2018-10-18T07:19:15.463Z,17.20
2018-10-18T07:21:44.059Z,17.30
2018-10-18T07:24:12.734Z,17.20
2018-10-18T07:26:41.316Z,17.30
2018-10-18T07:29:09.960Z,17.40
2018-10-18T07:31:38.594Z,17.40
2018-10-18T07:34:07.257Z,17.60
2018-10-18T07:36:35.943Z,17.60
2018-10-18T07:39:20.796Z,17.70
2018-10-18T07:41:56.100Z,17.80
2018-10-18T07:47:11.856Z,17.90
2018-10-18T07:49:42.892Z,18.00
2018-10-18T07:52:14.790Z,18.10
2018-10-18T07:54:48.396Z,18.10
2018-10-18T07:57:22.580Z,18.20
2018-10-18T07:59:52.795Z,18.20
2018-10-18T08:02:26.621Z,18.30
2018-10-18T08:04:59.513Z,18.30
2018-10-18T08:07:42.165Z,18.30
2018-10-18T08:10:17.060Z,18.20
2018-10-18T08:12:50.021Z,18.30
2018-10-18T08:15:19.435Z,18.20
2018-10-18T08:17:50.500Z,18.20
2018-10-18T08:20:20.887Z,18.30
2018-10-18T08:22:50.244Z,18.30
2018-10-18T08:25:23.706Z,18.40
2018-10-18T08:27:56.532Z,18.50
2018-10-18T08:30:30.768Z,18.50
2018-10-18T08:33:06.481Z,18.60
2018-10-18T08:35:35.284Z,18.60
2018-10-18T08:38:06.169Z,18.60
2018-10-18T08:40:37.849Z,18.70
2018-10-18T08:43:08.835Z,18.60
2018-10-18T08:45:42.771Z,18.70
2018-10-18T08:48:16.168Z,18.70
2018-10-18T08:50:44.897Z,18.80
2018-10-18T08:53:13.901Z,18.90
2018-10-18T08:55:44.490Z,19.00
2018-10-18T08:58:15.329Z,19.00
2018-10-18T09:00:45.998Z,19.10
2018-10-18T09:03:17.369Z,19.10
2018-10-18T09:05:46.041Z,19.30
2018-10-18T09:08:23.424Z,19.30
2018-10-18T09:10:52.155Z,19.40
2018-10-18T09:13:24.721Z,19.50
2018-10-18T09:15:54.350Z,19.50
2018-10-18T09:18:25.080Z,19.60
2018-10-18T09:20:54.427Z,19.70
2018-10-18T09:23:25.742Z,19.70
2018-10-18T09:25:57.129Z,19.80
2018-10-18T09:28:26.770Z,19.90
2018-10-18T09:30:56.110Z,20.00
2018-10-18T09:33:24.999Z,20.00
2018-10-18T09:35:53.681Z,20.10
2018-10-18T09:38:24.384Z,20.20
2018-10-18T09:40:53.063Z,20.30
2018-10-18T09:43:21.752Z,20.40
2018-10-18T09:45:52.520Z,20.40
2018-10-18T09:48:21.367Z,20.50
2018-10-18T09:50:50.033Z,20.60
2018-10-18T09:53:19.444Z,20.60
2018-10-18T09:55:50.524Z,20.70
2018-10-18T09:58:19.235Z,20.70
2018-10-18T10:00:54.136Z,20.70
2018-10-18T10:03:22.925Z,20.70
2018-10-18T10:05:53.757Z,20.70
2018-10-18T10:08:25.485Z,20.70
2018-10-18T10:10:55.052Z,20.70
2018-10-18T10:13:25.362Z,20.70
2018-10-18T10:15:57.532Z,20.70
2018-10-18T10:18:31.151Z,20.70
2018-10-18T10:21:04.504Z,20.70
2018-10-18T10:23:43.956Z,20.80
2018-10-18T10:26:16.034Z,20.80
2018-10-18T10:28:48.651Z,20.90
2018-10-18T10:31:18.412Z,21.00
2018-10-18T10:33:47.147Z,21.00
2018-10-18T10:36:15.800Z,21.00
2018-10-18T10:38:46.767Z,21.10
2018-10-18T10:41:15.921Z,21.10
2018-10-18T10:43:45.231Z,21.20
2018-10-18T10:46:17.009Z,20.80
2018-10-18T10:48:45.678Z,21.30
2018-10-18T10:51:14.431Z,21.40
2018-10-18T10:53:44.053Z,21.50
2018-10-18T10:56:12.734Z,21.60
2018-10-18T10:58:41.400Z,21.80
2018-10-18T11:01:14.697Z,21.90
2018-10-18T11:03:43.851Z,22.00
2018-10-18T11:06:13.214Z,22.00
2018-10-18T11:08:42.470Z,22.00
2018-10-18T11:11:11.884Z,22.00
2018-10-18T11:13:40.519Z,22.10
2018-10-18T11:16:09.224Z,22.10
2018-10-18T11:18:39.178Z,22.20
2018-10-18T11:21:09.238Z,22.30
2018-10-18T11:26:17.653Z,22.30
2018-10-18T11:28:46.965Z,22.60
2018-10-18T11:31:15.628Z,22.70
2018-10-18T11:33:44.392Z,22.80
2018-10-18T11:36:16.088Z,22.80
2018-10-18T11:38:44.820Z,22.80
2018-10-18T11:41:13.480Z,22.90
2018-10-18T11:43:42.129Z,22.90
2018-10-18T11:46:10.803Z,22.90
2018-10-18T11:48:39.684Z,22.90
2018-10-18T11:51:08.948Z,23.00
2018-10-18T11:53:39.188Z,23.10
2018-10-18T11:56:08.168Z,23.20
2018-10-18T11:58:36.832Z,23.30
2018-10-18T12:01:05.866Z,23.30
2018-10-18T12:03:36.615Z,23.30
2018-10-18T12:06:05.368Z,23.30
2018-10-18T12:08:36.062Z,23.20
2018-10-18T12:11:06.299Z,23.30
2018-10-18T12:13:39.398Z,23.20
2018-10-18T12:16:11.013Z,23.20
2018-10-18T12:18:43.078Z,23.20
2018-10-18T12:21:12.888Z,23.20
2018-10-18T12:23:41.592Z,23.10
2018-10-18T12:26:10.403Z,23.10
2018-10-18T12:28:40.340Z,23.20
2018-10-18T12:31:09.480Z,23.20
2018-10-18T12:33:40.268Z,23.20
2018-10-18T12:36:12.712Z,23.30
2018-10-18T12:38:41.456Z,23.30
2018-10-18T12:41:12.093Z,23.30
2018-10-18T12:43:44.092Z,23.30
2018-10-18T12:46:18.541Z,23.40
2018-10-18T12:48:49.697Z,23.40
2018-10-18T12:51:21.928Z,23.40
2018-10-18T12:53:52.057Z,23.50
2018-10-18T12:56:23.417Z,23.50
2018-10-18T12:58:52.732Z,23.50
2018-10-18T13:01:37.938Z,23.50
2018-10-18T13:04:06.617Z,23.40
2018-10-18T13:06:37.409Z,23.40
2018-10-18T13:09:09.621Z,23.40
2018-10-18T13:11:38.823Z,23.40
2018-10-18T13:14:08.379Z,23.40
2018-10-18T13:16:41.092Z,23.40
2018-10-18T13:19:11.814Z,23.40
2018-10-18T13:21:40.500Z,23.40
2018-10-18T13:24:09.249Z,23.40
2018-10-18T13:26:38.200Z,23.40
2018-10-18T13:29:07.300Z,23.40
2018-10-18T13:31:35.972Z,23.50
2018-10-18T13:34:04.881Z,23.50
2018-10-18T13:36:33.456Z,23.50
2018-10-18T13:39:02.300Z,23.50
2018-10-18T13:41:31.118Z,23.50
2018-10-18T13:43:59.807Z,23.50
2018-10-18T13:46:28.888Z,23.50
2018-10-18T13:48:57.588Z,23.50
2018-10-18T13:51:26.285Z,23.50
2018-10-18T13:53:54.966Z,23.50
2018-10-18T13:56:23.604Z,23.50
2018-10-18T13:58:52.469Z,23.50
2018-10-18T14:01:21.139Z,23.50
2018-10-18T14:03:51.149Z,23.50
2018-10-18T14:06:19.836Z,23.50
2018-10-18T14:08:48.502Z,23.50
2018-10-18T14:11:17.260Z,23.50
2018-10-18T14:13:45.909Z,23.50
2018-10-18T14:16:15.297Z,23.60
2018-10-18T14:18:45.053Z,23.60
2018-10-18T14:21:13.869Z,23.70
2018-10-18T14:23:42.617Z,23.70
2018-10-18T14:26:11.325Z,23.70
2018-10-18T14:28:40.847Z,23.70
2018-10-18T14:31:09.568Z,23.70
2018-10-18T14:33:39.313Z,23.70
2018-10-18T14:36:08.498Z,23.70
2018-10-18T14:38:44.174Z,23.60
2018-10-18T14:41:12.724Z,23.60
2018-10-18T14:43:42.257Z,23.60
2018-10-18T14:46:10.938Z,23.50
2018-10-18T14:48:39.609Z,23.50
2018-10-18T14:51:08.312Z,23.50
2018-10-18T14:53:36.947Z,23.40
2018-10-18T14:56:08.656Z,23.40
2018-10-18T14:58:37.338Z,23.30
2018-10-18T15:01:07.678Z,23.30
2018-10-18T15:03:38.506Z,23.30
2018-10-18T15:06:07.164Z,23.30
2018-10-18T15:08:36.411Z,23.30
2018-10-18T15:11:06.860Z,23.30
2018-10-18T15:13:35.492Z,23.30
2018-10-18T15:16:04.162Z,23.30
2018-10-18T15:18:33.818Z,23.30
2018-10-18T15:21:02.616Z,23.20
2018-10-18T15:23:31.289Z,23.20
2018-10-18T15:25:59.969Z,23.20
2018-10-18T15:28:28.640Z,23.20
2018-10-18T15:30:57.581Z,23.20
2018-10-18T15:33:26.328Z,23.10
2018-10-18T15:35:54.988Z,23.10
2018-10-18T15:38:29.354Z,23.10
2018-10-18T15:40:59.091Z,23.10
2018-10-18T15:43:27.771Z,23.00
2018-10-18T15:45:56.422Z,23.00
2018-10-18T15:48:25.111Z,22.90
2018-10-18T15:50:54.373Z,22.90
2018-10-18T15:53:23.058Z,22.90
2018-10-18T15:55:53.204Z,22.80
2018-10-18T15:58:21.878Z,22.80
2018-10-18T16:00:50.555Z,22.70
2018-10-18T16:03:19.368Z,22.60
2018-10-18T16:05:47.984Z,22.50
2018-10-18T16:08:16.644Z,22.50
2018-10-18T16:10:45.592Z,22.50
2018-10-18T16:13:14.422Z,22.40
2018-10-18T16:15:43.076Z,22.40
2018-10-18T16:18:11.722Z,22.30
2018-10-18T16:20:40.395Z,22.30
2018-10-18T16:23:09.088Z,22.20
2018-10-18T16:25:37.738Z,22.10
2018-10-18T16:28:06.431Z,22.10
2018-10-18T16:30:35.108Z,22.00
2018-10-18T16:33:03.764Z,22.00
2018-10-18T16:35:32.423Z,21.90
2018-10-18T16:38:01.179Z,21.80
2018-10-18T16:40:29.843Z,21.70
2018-10-18T16:42:58.479Z,21.60
2018-10-18T16:45:27.225Z,21.50
2018-10-18T16:47:55.953Z,21.50
2018-10-18T16:50:24.616Z,21.40
2018-10-18T16:52:53.314Z,21.40
2018-10-18T16:55:22.000Z,21.30
2018-10-18T16:57:50.669Z,21.20
2018-10-18T17:00:19.484Z,21.10
2018-10-18T17:02:48.121Z,21.10
2018-10-18T17:05:16.793Z,21.00
2018-10-18T17:07:45.477Z,21.00
2018-10-18T17:10:14.277Z,20.90
2018-10-18T17:12:42.877Z,20.90
2018-10-18T17:15:11.530Z,20.80
2018-10-18T17:17:40.231Z,20.80
2018-10-18T17:20:09.105Z,20.70
2018-10-18T17:22:37.936Z,20.60
2018-10-18T17:25:06.716Z,20.60
2018-10-18T17:27:35.649Z,20.50
2018-10-18T17:30:06.653Z,20.50
2018-10-18T17:32:35.517Z,20.40
2018-10-18T17:35:04.509Z,20.30
2018-10-18T17:37:33.177Z,20.20
2018-10-18T17:40:02.142Z,20.20
2018-10-18T17:42:30.783Z,20.10
2018-10-18T17:44:59.430Z,20.10
2018-10-18T17:47:28.115Z,20.00
2018-10-18T17:49:56.903Z,20.00
2018-10-18T17:52:25.575Z,19.90
2018-10-18T17:54:54.253Z,19.80
2018-10-18T17:57:23.017Z,19.70
2018-10-18T17:59:52.094Z,19.60
2018-10-18T18:02:20.726Z,19.50
2018-10-18T18:04:49.542Z,19.40
2018-10-18T18:07:21.311Z,19.40
2018-10-18T18:09:50.011Z,19.40
2018-10-18T18:12:18.790Z,19.30
2018-10-18T18:14:47.479Z,19.30
2018-10-18T18:17:16.137Z,19.20
2018-10-18T18:19:44.900Z,19.20
2018-10-18T18:22:13.575Z,19.10
2018-10-18T18:24:42.280Z,19.00
2018-10-18T18:27:10.927Z,18.90
2018-10-18T18:29:39.608Z,18.90
2018-10-18T18:32:08.368Z,18.80
2018-10-18T18:34:37.016Z,18.80
2018-10-18T18:37:06.025Z,18.70
2018-10-18T18:39:34.672Z,18.60
2018-10-18T18:42:03.361Z,18.50
2018-10-18T18:44:32.051Z,18.40
2018-10-18T18:47:04.320Z,18.20
2018-10-18T18:49:32.976Z,18.20
2018-10-18T18:52:01.645Z,18.20
2018-10-18T18:54:31.413Z,18.10
2018-10-18T18:57:00.177Z,18.10
2018-10-18T18:59:28.917Z,18.10
2018-10-18T19:01:57.575Z,18.10
2018-10-18T19:04:26.229Z,18.10
2018-10-18T19:06:54.875Z,18.00
2018-10-18T19:09:23.576Z,18.00
2018-10-18T19:11:52.232Z,18.00
2018-10-18T19:14:20.874Z,17.90
2018-10-18T19:16:49.518Z,17.90
2018-10-18T19:19:18.207Z,17.90
2018-10-18T19:21:46.900Z,17.80
2018-10-18T19:24:15.557Z,17.80
2018-10-18T19:26:44.219Z,17.80
2018-10-18T19:29:12.896Z,17.70
2018-10-18T19:31:41.575Z,17.70
2018-10-18T19:34:10.357Z,17.60
2018-10-18T19:36:39.068Z,17.50
2018-10-18T19:39:08.572Z,17.60
2018-10-18T19:41:37.260Z,17.50
2018-10-18T19:44:08.677Z,17.50
2018-10-18T19:46:37.435Z,17.50
2018-10-18T19:49:06.136Z,17.40
2018-10-18T19:51:35.171Z,17.40
2018-10-18T19:54:03.882Z,17.30
2018-10-18T19:56:32.540Z,17.30
2018-10-18T19:59:01.176Z,17.20
2018-10-18T20:01:29.862Z,17.20
2018-10-18T20:03:58.645Z,17.10
2018-10-18T20:06:27.329Z,17.20
2018-10-18T20:08:56.206Z,17.10
2018-10-18T20:11:25.723Z,17.10
2018-10-18T20:13:54.396Z,17.00
2018-10-18T20:16:23.417Z,17.00
2018-10-18T20:18:52.119Z,16.90
2018-10-18T20:21:20.772Z,16.90
2018-10-18T20:23:49.464Z,16.90
2018-10-18T20:26:18.477Z,16.90
2018-10-18T20:28:46.810Z,16.90
2018-10-18T20:31:15.571Z,16.90
2018-10-18T20:33:44.390Z,16.90
2018-10-18T20:36:13.199Z,16.90
2018-10-18T20:38:41.865Z,16.90
2018-10-18T20:41:10.521Z,16.80
2018-10-18T20:43:39.288Z,16.80
2018-10-18T20:46:07.908Z,16.80
2018-10-18T20:48:37.505Z,16.70
2018-10-18T20:51:06.242Z,16.70
2018-10-18T20:53:34.877Z,16.70
2018-10-18T20:56:03.551Z,16.60
2018-10-18T20:58:32.212Z,16.60
2018-10-18T21:01:00.901Z,16.50
2018-10-18T21:03:29.544Z,16.50
2018-10-18T21:05:58.253Z,16.50
2018-10-18T21:08:26.860Z,16.40
2018-10-18T21:10:55.522Z,16.30
2018-10-18T21:13:24.146Z,16.30
2018-10-18T21:15:52.880Z,16.30
2018-10-18T21:18:21.553Z,16.30
2018-10-18T21:20:50.256Z,16.30
2018-10-18T21:23:18.913Z,16.30
2018-10-18T21:25:47.688Z,16.20
2018-10-18T21:28:16.297Z,16.20
2018-10-18T21:30:44.977Z,16.20
2018-10-18T21:33:13.719Z,16.20
2018-10-18T21:35:42.347Z,16.10
2018-10-18T21:38:10.988Z,16.10
2018-10-18T21:40:39.690Z,16.10
2018-10-18T21:43:08.322Z,16.10
2018-10-18T21:45:37.000Z,16.00
2018-10-18T21:48:06.240Z,16.00
2018-10-18T21:50:34.870Z,15.90
2018-10-18T21:53:03.637Z,15.90
2018-10-18T21:55:32.302Z,15.90
2018-10-18T21:58:00.953Z,15.90
2018-10-18T22:00:35.084Z,15.80
2018-10-18T22:03:05.838Z,15.80
2018-10-18T22:05:34.487Z,15.80
2018-10-18T22:08:03.227Z,15.80
2018-10-18T22:10:31.895Z,15.80
2018-10-18T22:13:00.578Z,15.70
2018-10-18T22:15:29.236Z,15.60
2018-10-18T22:17:57.879Z,15.60
2018-10-18T22:20:26.574Z,15.50
2018-10-18T22:22:55.666Z,15.50
2018-10-18T22:25:24.360Z,15.50
2018-10-18T22:27:53.067Z,15.50
2018-10-18T22:30:21.828Z,15.60
2018-10-18T22:32:50.501Z,15.50
2018-10-18T22:35:19.164Z,15.40
2018-10-18T22:37:47.846Z,15.40
2018-10-18T22:40:16.537Z,15.40
2018-10-18T22:42:45.193Z,15.30
2018-10-18T22:45:13.914Z,15.30
2018-10-18T22:47:42.629Z,15.20
2018-10-18T22:50:11.304Z,15.30
2018-10-18T22:52:39.940Z,15.20
2018-10-18T22:55:08.667Z,15.20
2018-10-18T22:57:37.348Z,15.10
2018-10-18T23:00:10.542Z,15.10
2018-10-18T23:02:39.253Z,15.10
2018-10-18T23:05:08.039Z,15.10
2018-10-18T23:07:36.675Z,15.10
2018-10-18T23:10:06.323Z,15.20
2018-10-18T23:12:34.974Z,15.10
2018-10-18T23:15:03.750Z,15.10
2018-10-18T23:17:32.466Z,15.00
2018-10-18T23:20:01.420Z,14.90
2018-10-18T23:22:30.124Z,14.90
2018-10-18T23:24:58.804Z,14.90
2018-10-18T23:27:30.811Z,14.90
2018-10-18T23:29:59.538Z,14.90
2018-10-18T23:32:30.240Z,14.90
2018-10-18T23:34:59.011Z,14.90
2018-10-18T23:37:27.912Z,14.90
2018-10-18T23:39:57.489Z,14.90
2018-10-18T23:42:26.735Z,14.90
2018-10-18T23:44:55.387Z,14.80
2018-10-18T23:47:24.055Z,14.90
2018-10-18T23:49:52.683Z,14.80
2018-10-18T23:52:21.319Z,14.80
2018-10-18T23:54:50.637Z,14.80
2018-10-18T23:57:19.288Z,14.80
2018-10-18T23:59:49.025Z,14.80
